Main page
METAR-TAF:

Airports :

Budapest, Hungary

Budapest Ferenc Liszt International Airport

latitude: 47-26N, longitude: 019-16E, elevation: 151 m

Current weather observation

The report was made 30 minutes ago, at 19:30 UTC
Wind 1 kt from variable directions
Temperature 22°C
Humidity 65%
Pressure 1015 hPa
Visibility 10 km or more
no clouds below 1500 m and no cumulonimbus

METAR: LHBP 291930Z VRB01KT CAVOK 22/15 Q1015 NOSIG

Time: 22:00 (20:00 UTC)

Forecast

The report was made 3 hours and 0 minutes ago, at 17:00 UTC
Forecast valid from 29 at 18 UTC to 30 at 18 UTC
Wind 3 kt from variable directions
Visibility 10 km or more
no clouds below 1500 m and no cumulonimbus
Becoming
from 30 at 08 UTC to 30 at 10 UTC
Wind 8 kt from the South

TAF: LHBP 291700Z 2918/3018 VRB03KT CAVOK BECMG 3008/3010 17008KT

METAR-TAF

Weather observations and forecasts of more than 4000 airports (METAR and TAF reports).

The available stations are represented by yellow and red dots on the map.

Hover mouse over dot to see the name of the station.

Then click to see weather observations and forecasts.

To change the map : click on the green buttons with a black cross to zoom in, on the green button with a dash to zoom out, or on the green arrows for adjacent maps.


METAR-TAF: